Time;durP1;ratioP1;P1;durP2;ratioP2;P2;SDS_P1;SDS_P2;PMS_P1;PMS_P2;Temp;Humidity;BMP_temperature;BMP_pressure;BME280_temperature;BME280_humidity;BME280_pressure;Samples;Min_cycle;Max_cycle;Signal;HPM_P1;HPM_P2
2021/04/14 00:00:23;;;;;;;12.80;7.50;;;;;;;0.73;80.21;97005.97;1044987;28;20028;-69
2021/04/14 00:00:54;;;;;;;12.45;7.90;;;;;;;0.74;79.98;97007.59;1048661;28;20063;-70
2021/04/14 00:01:24;;;;;;;12.30;8.10;;;;;;;0.72;80.57;97001.72;1048613;28;20047;-70
2021/04/14 00:01:55;;;;;;;12.13;8.00;;;;;;;0.74;80.98;97007.59;1048608;28;20406;-70
2021/04/14 00:02:26;;;;;;;16.65;7.82;;;;;;;0.75;80.79;97009.22;1048627;28;20021;-69
2021/04/14 00:02:56;;;;;;;8.87;7.30;;;;;;;0.75;80.44;97003.16;1048650;28;20021;-69
2021/04/14 00:03:30;;;;;;;10.13;7.50;;;;;;;0.74;80.54;97004.97;1049019;28;20017;-70
2021/04/14 00:04:01;;;;;;;10.60;7.82;;;;;;;0.75;80.72;97005.78;1048915;28;20016;-69
2021/04/14 00:04:33;;;;;;;10.30;7.63;;;;;;;0.74;80.26;97009.41;1048903;28;20078;-69
2021/04/14 00:05:07;;;;;;;13.43;6.95;;;;;;;0.72;80.91;97006.16;1049042;28;20488;-69
2021/04/14 00:05:38;;;;;;;11.38;6.88;;;;;;;0.64;81.24;97004.44;1048731;28;20142;-70
2021/04/14 00:06:09;;;;;;;11.23;7.03;;;;;;;0.60;80.96;97004.97;1044577;28;20374;-74
2021/04/14 00:06:39;;;;;;;10.27;6.83;;;;;;;0.54;81.45;97009.16;1044544;28;20017;-70
2021/04/14 00:07:10;;;;;;;9.20;6.70;;;;;;;0.47;81.38;97009.06;1044820;28;20251;-71
2021/04/14 00:07:40;;;;;;;10.90;7.10;;;;;;;0.42;82.11;97014.06;1048652;28;20009;-70
2021/04/14 00:08:11;;;;;;;10.90;7.23;;;;;;;0.37;81.69;97019.03;1048624;28;20488;-70
2021/04/14 00:08:41;;;;;;;12.97;7.83;;;;;;;0.34;82.71;97015.94;1048958;28;20017;-70
2021/04/14 00:09:12;;;;;;;10.07;7.27;;;;;;;0.28;82.71;97012.22;1048941;28;20009;-69
2021/04/14 00:09:43;;;;;;;13.50;7.67;;;;;;;0.24;82.64;97018.84;1049023;28;20063;-70
2021/04/14 00:10:14;;;;;;;11.13;7.60;;;;;;;0.21;82.14;97008.69;1048674;28;20016;-70
2021/04/14 00:10:45;;;;;;;9.35;7.18;;;;;;;0.17;82.25;97017.94;1048608;28;20462;-69
2021/04/14 00:11:17;;;;;;;11.83;7.10;;;;;;;0.13;81.80;97016.66;1048533;28;20120;-70
2021/04/14 00:11:47;;;;;;;10.98;7.30;;;;;;;0.07;81.90;97017.38;1047379;28;20027;-69
2021/04/14 00:12:18;;;;;;;10.47;6.97;;;;;;;0.00;82.50;97017.28;1044442;28;20039;-70
2021/04/14 00:12:48;;;;;;;9.77;7.10;;;;;;;-0.01;82.92;97008.56;1044510;28;20024;-70
2021/04/14 00:13:29;;;;;;;10.80;7.00;;;;;;;-0.02;83.39;97012.19;1044460;28;20490;-70
2021/04/14 00:13:59;;;;;;;11.07;7.75;;;;;;;-0.04;83.42;97016.81;1044599;28;20458;-70
2021/04/14 00:14:30;;;;;;;13.20;7.40;;;;;;;-0.08;84.15;97015.53;1044642;28;20025;-69
2021/04/14 00:15:04;;;;;;;9.43;6.70;;;;;;;-0.11;83.97;97012.44;1044761;28;20093;-70
2021/04/14 00:15:36;;;;;;;10.00;7.47;;;;;;;-0.17;84.57;97013.97;1044809;28;20021;-69
2021/04/14 00:16:06;;;;;;;13.95;7.25;;;;;;;-0.20;84.89;97008.25;1044826;28;20016;-70
2021/04/14 00:16:37;;;;;;;9.90;7.23;;;;;;;-0.22;84.66;97002.34;1044699;28;20071;-70
2021/04/14 00:17:07;;;;;;;12.30;7.40;;;;;;;-0.22;85.21;97005.78;1044914;28;20009;-70
2021/04/14 00:17:38;;;;;;;9.73;7.17;;;;;;;-0.23;85.57;97000.72;1045359;28;20020;-70
2021/04/14 00:18:08;;;;;;;10.93;7.53;;;;;;;-0.24;85.52;97001.72;1046424;28;20029;-70
2021/04/14 00:18:39;;;;;;;11.53;8.27;;;;;;;-0.17;85.05;97002.63;1045973;28;20085;-70
2021/04/14 00:19:09;;;;;;;11.10;6.97;;;;;;;-0.13;85.54;96998.66;1044916;28;20507;-69
2021/04/14 00:19:43;;;;;;;14.47;7.50;;;;;;;-0.17;85.98;97006.06;1044454;28;20114;-70
2021/04/14 00:20:22;;;;;;;12.77;7.38;;;;;;;-0.20;86.21;97006.44;1044625;28;20017;-70
2021/04/14 00:20:52;;;;;;;11.63;8.27;;;;;;;-0.22;85.98;96997.91;1045319;28;20041;-71
2021/04/14 00:21:26;;;;;;;13.15;8.30;;;;;;;-0.22;86.42;97003.16;1044773;28;20021;-71
2021/04/14 00:21:57;;;;;;;14.88;8.85;;;;;;;-0.24;86.10;97006.97;1044552;28;20528;-70
2021/04/14 00:22:27;;;;;;;12.68;8.45;;;;;;;-0.24;86.40;97006.97;1040285;28;20025;-71
2021/04/14 00:22:58;;;;;;;14.37;8.43;;;;;;;-0.27;86.60;97005.50;1040402;28;20029;-70
2021/04/14 00:23:28;;;;;;;12.10;8.27;;;;;;;-0.28;86.53;96998.63;1040864;28;20026;-70
2021/04/14 00:23:59;;;;;;;12.47;7.93;;;;;;;-0.29;86.49;97005.69;1044469;28;20025;-70
2021/04/14 00:24:31;;;;;;;10.30;8.00;;;;;;;-0.29;87.07;97003.06;1044765;28;20028;-71
2021/04/14 00:25:02;;;;;;;23.83;13.70;;;;;;;-0.28;86.48;97001.25;1044720;28;20103;-70
2021/04/14 00:25:36;;;;;;;25.10;15.03;;;;;;;-0.29;86.74;96994.38;1044697;28;20488;-70
2021/04/14 00:26:07;;;;;;;12.07;8.07;;;;;;;-0.30;86.37;96998.81;1044476;28;20020;-70
2021/04/14 00:26:38;;;;;;;15.32;9.32;;;;;;;-0.29;85.93;97004.88;1044489;28;20025;-70
2021/04/14 00:27:09;;;;;;;15.65;10.57;;;;;;;-0.28;86.19;96996.81;1044485;28;20481;-70
2021/04/14 00:27:39;;;;;;;12.65;8.73;;;;;;;-0.28;86.23;97001.25;1044404;28;20061;-70
2021/04/14 00:28:11;;;;;;;27.50;17.40;;;;;;;-0.29;85.85;96997.00;1044869;28;20094;-71
2021/04/14 00:28:41;;;;;;;30.00;18.90;;;;;;;-0.27;86.14;97003.69;1044472;28;20021;-70
2021/04/14 00:29:12;;;;;;;15.77;10.10;;;;;;;-0.27;85.97;97002.88;1044700;28;20032;-70
2021/04/14 00:29:42;;;;;;;16.13;11.10;;;;;;;-0.28;86.52;96996.81;1048598;28;20052;-70
2021/04/14 00:30:13;;;;;;;13.97;8.90;;;;;;;-0.26;86.14;97007.13;1048602;28;20029;-70
2021/04/14 00:30:43;;;;;;;15.60;9.95;;;;;;;-0.32;86.20;97003.41;1048561;28;20056;-70
2021/04/14 00:31:15;;;;;;;18.10;10.10;;;;;;;-0.30;86.84;97008.50;1048575;28;20020;-70
2021/04/14 00:31:45;;;;;;;17.40;10.45;;;;;;;-0.31;86.85;96997.19;1044770;28;20025;-70
2021/04/14 00:32:15;;;;;;;14.97;9.60;;;;;;;-0.30;87.27;97001.44;1044645;28;20025;-70
2021/04/14 00:32:46;;;;;;;20.43;10.03;;;;;;;-0.30;87.11;97003.25;1044795;28;20033;-70
2021/04/14 00:33:17;;;;;;;15.10;9.50;;;;;;;-0.32;87.31;97007.84;1044456;28;20020;-70
2021/04/14 00:33:47;;;;;;;15.17;9.37;;;;;;;-0.33;87.85;97001.78;1040364;28;20565;-71
2021/04/14 00:34:20;;;;;;;15.83;9.40;;;;;;;-0.33;87.66;97006.22;1040289;28;20346;-70
2021/04/14 00:34:50;;;;;;;18.13;9.23;;;;;;;-0.35;87.92;97000.34;1040269;28;20033;-70
2021/04/14 00:35:21;;;;;;;15.60;9.30;;;;;;;-0.33;87.69;97001.78;1044117;28;20022;-70
2021/04/14 00:35:53;;;;;;;14.02;9.05;;;;;;;-0.31;87.79;96997.19;1044536;28;20037;-71
2021/04/14 00:36:23;;;;;;;15.93;8.88;;;;;;;-0.29;87.73;96999.63;1044788;28;20020;-71
2021/04/14 00:36:53;;;;;;;14.10;8.50;;;;;;;-0.25;87.55;97007.97;1044866;28;20351;-70
2021/04/14 00:37:24;;;;;;;12.40;8.13;;;;;;;-0.25;87.98;97002.72;1044028;28;20454;-71
2021/04/14 00:37:55;;;;;;;14.07;8.87;;;;;;;-0.21;87.77;97001.34;1043450;28;20029;-71
2021/04/14 00:38:25;;;;;;;12.38;8.32;;;;;;;-0.19;87.79;96996.75;1043781;28;20017;-69
2021/04/14 00:38:56;;;;;;;12.97;8.63;;;;;;;-0.16;87.19;96997.19;1043888;28;20044;-69
2021/04/14 00:39:26;;;;;;;12.63;8.53;;;;;;;-0.16;87.51;97002.44;1044625;28;20021;-69
2021/04/14 00:39:57;;;;;;;15.10;9.13;;;;;;;-0.13;87.08;97003.91;1044704;28;20374;-70
2021/04/14 00:40:38;;;;;;;12.83;8.83;;;;;;;-0.09;87.48;97000.75;1044737;28;20462;-69
2021/04/14 00:41:12;;;;;;;14.05;8.10;;;;;;;-0.04;87.28;97003.66;1044696;28;20021;-69
2021/04/14 00:41:43;;;;;;;12.63;7.65;;;;;;;0.01;87.09;97004.97;1044510;28;20016;-69
2021/04/14 00:42:14;;;;;;;12.43;8.20;;;;;;;0.00;87.14;97004.13;1044361;28;20070;-69
2021/04/14 00:42:45;;;;;;;11.50;8.07;;;;;;;0.01;86.61;97002.31;1044749;28;20024;-69
2021/04/14 00:43:17;;;;;;;14.25;7.95;;;;;;;0.03;86.36;97008.22;1044703;28;20539;-69
2021/04/14 00:43:48;;;;;;;15.35;7.80;;;;;;;0.02;86.35;97002.13;1044670;28;20496;-69
2021/04/14 00:44:19;;;;;;;11.03;7.63;;;;;;;0.02;85.87;97007.41;1044768;28;20028;-70
2021/04/14 00:44:49;;;;;;;10.77;7.32;;;;;;;0.01;85.53;96997.88;1040240;28;20020;-70
2021/04/14 00:45:20;;;;;;;11.93;7.73;;;;;;;-0.01;85.35;97003.28;1040357;28;20631;-70
2021/04/14 00:45:50;;;;;;;12.50;7.80;;;;;;;0.03;85.32;96997.69;1040189;28;20020;-69
2021/04/14 00:46:20;;;;;;;10.67;7.63;;;;;;;0.04;85.59;96996.69;1040376;28;20462;-70
2021/04/14 00:46:51;;;;;;;14.07;8.13;;;;;;;0.04;85.67;97002.75;1044479;28;20025;-69
2021/04/14 00:47:21;;;;;;;11.33;7.40;;;;;;;0.03;85.81;96992.44;1044263;28;20392;-70
2021/04/14 00:47:52;;;;;;;14.50;8.27;;;;;;;0.04;85.87;96994.88;1044298;28;20079;-69
2021/04/14 00:48:22;;;;;;;14.17;8.20;;;;;;;0.05;86.68;96996.50;1044362;28;20040;-69
2021/04/14 00:48:52;;;;;;;18.87;8.37;;;;;;;0.05;85.87;97001.75;1044284;28;20524;-69
2021/04/14 00:49:23;;;;;;;11.60;7.97;;;;;;;0.06;85.86;96997.34;1044608;28;20025;-69
2021/04/14 00:49:53;;;;;;;11.53;7.60;;;;;;;0.08;85.89;97000.59;1044590;28;20033;-70
2021/04/14 00:50:25;;;;;;;13.33;8.07;;;;;;;0.09;86.19;96999.59;1044663;28;20040;-70
2021/04/14 00:50:56;;;;;;;16.73;8.15;;;;;;;0.09;86.07;96996.97;1044570;28;20059;-69
2021/04/14 00:51:27;;;;;;;14.73;7.67;;;;;;;0.06;86.54;96998.16;1044645;28;20492;-69
2021/04/14 00:51:58;;;;;;;11.25;8.07;;;;;;;0.06;86.82;96997.34;1044579;28;20028;-69
2021/04/14 00:52:28;;;;;;;12.93;8.20;;;;;;;0.09;86.67;96992.53;1044208;28;20029;-69
2021/04/14 00:52:59;;;;;;;11.60;7.60;;;;;;;0.10;86.47;96998.59;1040200;28;20022;-70
2021/04/14 00:53:29;;;;;;;14.30;7.67;;;;;;;0.09;86.01;96997.78;1040260;28;20029;-70
2021/04/14 00:54:00;;;;;;;11.03;7.10;;;;;;;0.09;86.18;96995.16;1040279;28;20020;-69
2021/04/14 00:54:31;;;;;;;12.25;7.50;;;;;;;0.09;86.49;96996.97;1044298;28;20035;-69
2021/04/14 00:55:01;;;;;;;11.07;7.40;;;;;;;0.11;86.21;97003.69;1044301;28;20025;-70
2021/04/14 00:55:32;;;;;;;11.57;7.90;;;;;;;0.10;86.86;96993.34;1044335;28;20016;-69
2021/04/14 00:56:02;;;;;;;13.60;7.47;;;;;;;0.11;86.33;96998.44;1044070;28;20028;-69
2021/04/14 00:56:33;;;;;;;9.97;7.43;;;;;;;0.11;86.23;96993.19;1044260;28;20090;-70
2021/04/14 00:57:03;;;;;;;10.60;7.10;;;;;;;0.12;86.17;96997.44;1044625;28;20044;-69
2021/04/14 00:57:34;;;;;;;14.10;7.40;;;;;;;0.12;86.23;96994.81;1044615;28;20107;-69
2021/04/14 00:58:08;;;;;;;13.20;7.50;;;;;;;0.11;86.26;96995.00;1044558;28;20036;-69
2021/04/14 00:58:39;;;;;;;12.43;7.57;;;;;;;0.10;85.96;96990.72;1044577;28;20024;-69
2021/04/14 00:59:09;;;;;;;12.67;7.93;;;;;;;0.13;86.14;96987.75;1044301;28;20021;-69
2021/04/14 00:59:39;;;;;;;29.07;8.97;;;;;;;0.11;86.17;96987.94;1044378;28;20417;-69
2021/04/14 01:00:18;;;;;;;51.80;9.20;;;;;;;0.13;86.23;96993.00;1040151;28;20513;-69
2021/04/14 01:00:50;;;;;;;17.30;7.57;;;;;;;0.15;85.80;96985.72;1041046;28;20076;-69
2021/04/14 01:01:21;;;;;;;12.40;7.57;;;;;;;0.14;85.50;96990.19;1044239;28;20394;-69
2021/04/14 01:01:51;;;;;;;13.60;7.77;;;;;;;0.11;85.67;96984.50;1045735;28;20075;-70
2021/04/14 01:02:21;;;;;;;12.90;7.40;;;;;;;0.10;85.85;96988.09;1044242;28;20024;-69
2021/04/14 01:02:52;;;;;;;12.07;7.10;;;;;;;0.10;86.02;96985.47;1044118;28;20047;-69
2021/04/14 01:03:25;;;;;;;10.40;7.10;;;;;;;0.06;86.22;96986.84;1040092;28;20414;-70
2021/04/14 01:03:56;;;;;;;16.40;8.40;;;;;;;0.06;86.57;96992.09;1040128;28;20461;-70
2021/04/14 01:04:26;;;;;;;11.47;6.97;;;;;;;0.05;87.04;96988.63;1040737;28;20036;-69
2021/04/14 01:04:57;;;;;;;11.03;7.30;;;;;;;0.06;86.35;96981.56;1044247;28;20358;-69
2021/04/14 01:05:29;;;;;;;11.13;7.47;;;;;;;0.08;86.50;96990.09;1044619;28;20028;-69
2021/04/14 01:06:05;;;;;;;10.48;7.40;;;;;;;0.10;86.43;96980.19;1044557;28;20021;-69
2021/04/14 01:06:35;;;;;;;11.70;7.13;;;;;;;0.07;86.84;96977.94;1044327;28;20021;-69
2021/04/14 01:07:05;;;;;;;10.70;7.27;;;;;;;0.11;86.67;96977.41;1044283;28;20025;-69
2021/04/14 01:07:36;;;;;;;15.30;8.10;;;;;;;0.12;86.12;96981.66;1044282;28;20017;-70
2021/04/14 01:08:07;;;;;;;12.73;7.17;;;;;;;0.14;85.99;96974.41;1044371;28;20021;-69
2021/04/14 01:08:38;;;;;;;10.32;6.90;;;;;;;0.20;85.99;96980.75;1044345;28;20028;-69
2021/04/14 01:09:08;;;;;;;11.00;6.97;;;;;;;0.22;86.34;96978.78;1044261;28;20484;-68
2021/04/14 01:09:39;;;;;;;15.80;7.17;;;;;;;0.22;85.41;96974.34;1044334;28;20024;-70
2021/04/14 01:10:10;;;;;;;14.40;6.67;;;;;;;0.27;85.26;96972.97;1044309;28;20021;-69
2021/04/14 01:10:41;;;;;;;10.27;7.07;;;;;;;0.33;85.03;96974.88;1044288;28;20055;-68
2021/04/14 01:11:12;;;;;;;11.10;7.13;;;;;;;0.33;84.36;96970.44;1043918;28;20036;-69
2021/04/14 01:11:42;;;;;;;10.52;6.63;;;;;;;0.34;84.37;96971.25;1044201;28;20025;-69
2021/04/14 01:12:13;;;;;;;11.10;6.70;;;;;;;0.37;83.97;96976.97;1044213;28;20025;-70
2021/04/14 01:12:43;;;;;;;11.03;6.63;;;;;;;0.38;84.23;96970.69;1044319;28;20036;-69
2021/04/14 01:13:14;;;;;;;9.33;6.83;;;;;;;0.44;83.82;96969.97;1044275;28;20355;-70
2021/04/14 01:13:44;;;;;;;11.67;6.63;;;;;;;0.46;83.56;96969.78;1044281;28;20091;-70
2021/04/14 01:14:15;;;;;;;10.73;7.00;;;;;;;0.42;83.85;96965.91;1044525;28;20111;-69
2021/04/14 01:14:45;;;;;;;11.67;7.00;;;;;;;0.42;83.76;96971.97;1044552;28;20025;-70
2021/04/14 01:15:19;;;;;;;14.03;6.93;;;;;;;0.46;83.49;96965.38;1044496;28;20458;-69
2021/04/14 01:15:50;;;;;;;9.93;6.90;;;;;;;0.44;84.19;96963.91;1044179;28;20033;-69
2021/04/14 01:16:20;;;;;;;10.20;6.50;;;;;;;0.47;84.22;96974.06;1044256;28;20033;-70
2021/04/14 01:16:51;;;;;;;11.97;7.10;;;;;;;0.45;83.62;96962.91;1044244;28;20386;-70
2021/04/14 01:17:21;;;;;;;13.53;6.40;;;;;;;0.48;83.95;96967.81;1044238;28;20029;-70
2021/04/14 01:17:52;;;;;;;14.57;7.20;;;;;;;0.50;84.01;96963.16;1044453;28;20140;-69
2021/04/14 01:18:24;;;;;;;9.80;6.73;;;;;;;0.47;84.29;96966.19;1044536;28;20017;-69
2021/04/14 01:18:54;;;;;;;11.55;7.05;;;;;;;0.44;84.10;96969.16;1044173;28;20401;-69
2021/04/14 01:19:25;;;;;;;11.00;7.37;;;;;;;0.44;84.61;96969.16;1044139;28;20024;-70
2021/04/14 01:19:55;;;;;;;11.13;7.27;;;;;;;0.42;84.18;96965.91;1044275;28;20032;-70
2021/04/14 01:20:26;;;;;;;11.63;7.13;;;;;;;0.42;84.51;96963.28;1040124;28;20117;-69
2021/04/14 01:20:56;;;;;;;14.47;6.43;;;;;;;0.40;84.22;96968.69;1044210;28;20052;-70
2021/04/14 01:21:35;;;;;;;9.67;7.30;;;;;;;0.42;84.11;96971.16;1044105;28;20056;-69
2021/04/14 01:22:05;;;;;;;12.68;7.47;;;;;;;0.42;84.37;96971.97;1044365;28;20009;-69
2021/04/14 01:22:36;;;;;;;10.43;7.03;;;;;;;0.41;84.98;96965.09;1044505;28;20032;-69
2021/04/14 01:23:07;;;;;;;13.10;7.33;;;;;;;0.41;85.16;96972.97;1044608;28;20043;-69
2021/04/14 01:23:37;;;;;;;11.70;7.07;;;;;;;0.40;85.07;96971.31;1044511;28;20028;-70
2021/04/14 01:24:13;;;;;;;12.77;7.60;;;;;;;0.35;84.44;96970.25;1044197;28;20024;-69
2021/04/14 01:24:43;;;;;;;10.85;6.93;;;;;;;0.24;84.43;96976.78;1044127;28;20020;-70
2021/04/14 01:25:20;;;;;;;13.40;7.27;;;;;;;0.19;84.60;96981.75;1044236;28;20009;-69
2021/04/14 01:25:50;;;;;;;10.23;7.05;;;;;;;0.09;85.99;96983.81;1044304;28;20013;-70
2021/04/14 01:26:21;;;;;;;11.17;7.33;;;;;;;0.06;85.66;96986.84;1044336;28;20466;-69
2021/04/14 01:26:51;;;;;;;10.60;6.60;;;;;;;0.02;85.41;96978.47;1044475;28;20017;-69
2021/04/14 01:27:22;;;;;;;11.77;6.77;;;;;;;0.03;86.35;96979.28;1044473;28;20014;-70
2021/04/14 01:27:52;;;;;;;11.67;7.40;;;;;;;-0.11;86.05;96976.47;1044326;28;20016;-70
2021/04/14 01:28:39;;;;;;;11.43;7.27;;;;;;;-0.06;86.68;96976.72;1044459;28;20016;-69
2021/04/14 01:29:10;;;;;;;14.23;6.60;;;;;;;-0.01;85.74;96977.00;1044657;28;20358;-70
2021/04/14 01:29:40;;;;;;;11.33;6.80;;;;;;;0.03;86.25;96984.56;1044471;28;20032;-70
2021/04/14 01:30:20;;;;;;;10.43;7.20;;;;;;;-0.01;85.73;96982.28;1044499;28;20462;-69
2021/04/14 01:30:52;;;;;;;9.40;7.10;;;;;;;-0.01;85.86;96984.91;1044594;28;20026;-70
2021/04/14 01:31:34;;;;;;;10.43;6.63;;;;;;;-0.04;85.75;96984.47;1044372;28;20017;-70
2021/04/14 01:32:05;;;;;;;9.88;6.60;;;;;;;-0.11;84.62;96979.09;1044487;28;20035;-69
2021/04/14 01:32:35;;;;;;;9.93;6.83;;;;;;;-0.20;84.96;96988.06;1044378;28;20048;-69
2021/04/14 01:33:07;;;;;;;9.57;6.73;;;;;;;-0.34;85.99;96983.56;1044502;28;20008;-70
2021/04/14 01:33:37;;;;;;;10.45;6.72;;;;;;;-0.36;86.24;96980.28;1044451;28;20044;-69
2021/04/14 01:34:14;;;;;;;14.90;7.07;;;;;;;-0.37;86.69;96976.03;1044476;28;20029;-70
2021/04/14 01:34:44;;;;;;;9.25;6.43;;;;;;;-0.29;86.85;96974.16;1044537;28;20413;-70
2021/04/14 01:35:15;;;;;;;12.37;7.00;;;;;;;-0.20;86.23;96982.81;1044569;28;20016;-71
2021/04/14 01:35:46;;;;;;;9.63;6.65;;;;;;;-0.22;86.18;96974.25;1044200;28;20056;-70
2021/04/14 01:36:16;;;;;;;11.83;7.20;;;;;;;-0.23;86.58;96983.16;1044145;28;20043;-70
2021/04/14 01:36:47;;;;;;;10.67;6.53;;;;;;;-0.23;85.66;96975.25;1044122;28;20350;-70
2021/04/14 01:37:18;;;;;;;10.93;6.87;;;;;;;-0.23;85.63;96977.06;1044193;28;20020;-69
2021/04/14 01:37:49;;;;;;;9.73;6.78;;;;;;;-0.24;86.12;96978.88;1044447;28;20064;-70
2021/04/14 01:38:19;;;;;;;13.93;6.93;;;;;;;-0.24;86.23;96978.88;1044031;28;20379;-70
2021/04/14 01:38:50;;;;;;;10.60;7.10;;;;;;;-0.24;86.63;96971.00;1044132;28;20025;-70
2021/04/14 01:39:20;;;;;;;12.03;6.80;;;;;;;-0.19;86.45;96976.53;1044204;28;20020;-70
2021/04/14 01:39:50;;;;;;;10.63;6.97;;;;;;;-0.15;86.61;96977.84;1044330;28;20448;-70
2021/04/14 01:40:21;;;;;;;10.60;6.87;;;;;;;-0.17;86.18;96976.34;1044211;28;20481;-70
2021/04/14 01:40:52;;;;;;;11.90;7.30;;;;;;;-0.20;86.74;96971.47;1044123;28;20494;-70
2021/04/14 01:41:22;;;;;;;9.37;6.37;;;;;;;-0.18;87.02;96972.09;1043909;28;20025;-70
2021/04/14 01:41:53;;;;;;;9.70;6.83;;;;;;;-0.23;86.51;96972.63;1044126;28;20025;-69
2021/04/14 01:42:23;;;;;;;11.40;6.33;;;;;;;-0.23;86.46;96977.06;1044425;28;20066;-70
2021/04/14 01:42:54;;;;;;;9.53;6.87;;;;;;;-0.24;86.90;96976.25;1044448;28;20444;-70
2021/04/14 01:43:24;;;;;;;12.38;7.45;;;;;;;-0.23;86.60;96975.25;1044471;28;20516;-70
2021/04/14 01:43:55;;;;;;;16.67;7.40;;;;;;;-0.24;86.62;96973.63;1044511;28;20359;-70
2021/04/14 01:44:25;;;;;;;10.13;7.10;;;;;;;-0.21;87.08;96970.63;1044051;28;20466;-70
2021/04/14 01:44:56;;;;;;;14.60;7.17;;;;;;;-0.20;87.20;96979.38;1044276;28;20017;-70
2021/04/14 01:45:32;;;;;;;12.27;7.20;;;;;;;-0.19;87.15;96973.91;1044615;28;20119;-70
2021/04/14 01:46:02;;;;;;;14.63;7.38;;;;;;;-0.14;87.71;96979.47;1044805;28;20067;-70
2021/04/14 01:46:33;;;;;;;16.93;8.10;;;;;;;-0.12;87.33;96971.38;1044833;28;20160;-70
2021/04/14 01:47:03;;;;;;;13.27;6.97;;;;;;;-0.16;86.77;96972.72;1044860;28;20075;-71
2021/04/14 01:47:33;;;;;;;10.30;6.97;;;;;;;-0.17;86.14;96982.44;1044808;28;20091;-72
2021/04/14 01:48:05;;;;;;;12.27;6.33;;;;;;;-0.16;86.08;96984.06;1044947;28;20163;-70
2021/04/14 01:48:35;;;;;;;12.38;6.88;;;;;;;-0.14;85.81;96976.00;1044978;28;20462;-70
2021/04/14 01:49:06;;;;;;;11.57;7.10;;;;;;;-0.11;86.13;96979.09;1045113;28;20029;-70
2021/04/14 01:49:36;;;;;;;13.10;7.20;;;;;;;-0.12;85.92;96980.09;1044874;28;20017;-70
2021/04/14 01:50:07;;;;;;;11.93;6.63;;;;;;;-0.11;86.02;96971.19;1045024;28;20078;-70
2021/04/14 01:50:37;;;;;;;12.30;6.90;;;;;;;-0.09;85.49;96971.84;1044688;28;20082;-71
2021/04/14 01:51:08;;;;;;;11.53;7.00;;;;;;;-0.09;85.50;96974.47;1044784;28;20028;-71
2021/04/14 01:51:38;;;;;;;12.60;6.60;;;;;;;-0.08;85.21;96970.03;1044956;28;20454;-71
2021/04/14 01:52:09;;;;;;;12.13;6.77;;;;;;;-0.07;85.53;96975.09;1044757;28;20108;-70
2021/04/14 01:52:39;;;;;;;13.87;7.03;;;;;;;-0.09;84.79;96973.66;1044743;28;20021;-70
2021/04/14 01:53:11;;;;;;;11.27;6.83;;;;;;;-0.09;84.98;96971.84;1044761;28;20290;-70
2021/04/14 01:53:41;;;;;;;12.05;7.72;;;;;;;-0.12;84.15;96972.19;1044854;28;20560;-70
2021/04/14 01:54:12;;;;;;;11.47;6.60;;;;;;;-0.15;83.81;96966.50;1045122;28;20043;-71
2021/04/14 01:54:42;;;;;;;10.40;6.57;;;;;;;-0.18;84.14;96967.66;1045114;28;20032;-70
2021/04/14 01:55:13;;;;;;;11.67;6.63;;;;;;;-0.16;84.69;96973.53;1044969;28;20025;-70
2021/04/14 01:55:43;;;;;;;10.37;6.90;;;;;;;-0.19;84.63;96973.09;1045075;28;20020;-70
2021/04/14 01:56:15;;;;;;;12.07;6.70;;;;;;;-0.19;84.84;96973.09;1045245;28;20076;-70
2021/04/14 01:56:46;;;;;;;15.95;6.90;;;;;;;-0.22;84.78;96976.06;1044983;28;20531;-70
2021/04/14 01:57:16;;;;;;;12.17;6.83;;;;;;;-0.24;84.48;96971.00;1045098;28;20090;-70
2021/04/14 01:57:47;;;;;;;9.53;6.40;;;;;;;-0.25;84.95;96977.25;1045315;28;20075;-70
2021/04/14 01:58:18;;;;;;;9.85;6.93;;;;;;;-0.28;85.00;96977.59;1045130;28;20446;-70
2021/04/14 01:58:50;;;;;;;10.55;6.90;;;;;;;-0.30;85.76;96972.53;1045104;28;20052;-70
2021/04/14 01:59:20;;;;;;;13.35;7.13;;;;;;;-0.32;85.87;96979.75;1045277;28;20024;-70
2021/04/14 01:59:52;;;;;;;21.93;7.20;;;;;;;-0.31;85.70;96981.41;1045088;28;20029;-70
2021/04/14 02:00:33;;;;;;;13.35;7.38;;;;;;;-0.36;86.12;96972.41;1045039;28;20024;-70
2021/04/14 02:01:06;;;;;;;14.73;7.43;;;;;;;-0.35;86.72;96977.50;1044534;28;20390;-70
2021/04/14 02:01:36;;;;;;;10.13;6.78;;;;;;;-0.37;86.55;96970.78;1044433;28;20021;-70
2021/04/14 02:02:07;;;;;;;14.47;6.90;;;;;;;-0.37;86.45;96976.03;1044534;28;20486;-70
2021/04/14 02:02:37;;;;;;;12.87;6.60;;;;;;;-0.37;86.92;96971.59;1044587;28;20028;-70
2021/04/14 02:03:07;;;;;;;12.73;7.27;;;;;;;-0.34;86.79;96973.88;1044357;28;20033;-69
2021/04/14 02:03:39;;;;;;;14.90;7.23;;;;;;;-0.36;87.43;96975.03;1044509;28;20025;-69
2021/04/14 02:04:09;;;;;;;9.98;6.60;;;;;;;-0.38;87.50;96971.78;1044415;28;20029;-70
2021/04/14 02:04:40;;;;;;;10.40;7.07;;;;;;;-0.39;86.79;96968.34;1044438;28;20016;-69
2021/04/14 02:05:10;;;;;;;10.33;6.80;;;;;;;-0.41;86.57;96970.34;1044447;28;20373;-70
2021/04/14 02:05:41;;;;;;;12.13;6.90;;;;;;;-0.43;86.16;96974.13;1044378;28;20603;-70
2021/04/14 02:06:13;;;;;;;11.07;6.33;;;;;;;-0.42;86.25;96967.88;1044158;28;20051;-70
2021/04/14 02:06:44;;;;;;;10.10;6.68;;;;;;;-0.44;86.19;96965.44;1040443;28;20505;-71
2021/04/14 02:07:14;;;;;;;12.67;6.67;;;;;;;-0.43;85.82;96968.88;1040680;28;20017;-69
2021/04/14 02:07:45;;;;;;;9.70;6.80;;;;;;;-0.43;87.08;96971.50;1041081;28;20025;-69
2021/04/14 02:08:16;;;;;;;10.40;7.33;;;;;;;-0.41;87.08;96965.09;1044323;28;20033;-70
2021/04/14 02:08:46;;;;;;;9.43;6.53;;;;;;;-0.39;87.29;96963.09;1044610;28;20033;-70
2021/04/14 02:09:18;;;;;;;11.77;6.70;;;;;;;-0.37;86.80;96968.16;1044503;28;20021;-69
2021/04/14 02:09:48;;;;;;;11.50;7.22;;;;;;;-0.39;86.47;96962.28;1044562;28;20031;-69
2021/04/14 02:10:18;;;;;;;8.97;6.33;;;;;;;-0.38;86.51;96969.97;1044522;28;20032;-69
2021/04/14 02:10:51;;;;;;;10.90;7.00;;;;;;;-0.38;86.41;96971.78;1044141;28;20048;-70
2021/04/14 02:11:22;;;;;;;19.77;7.82;;;;;;;-0.40;86.46;96965.91;1044246;28;20024;-69
2021/04/14 02:11:52;;;;;;;10.73;6.77;;;;;;;-0.38;86.24;96974.41;1044127;28;20032;-70
2021/04/14 02:12:23;;;;;;;11.47;7.23;;;;;;;-0.40;86.49;96965.91;1044254;28;20032;-70
2021/04/14 02:12:55;;;;;;;12.37;6.77;;;;;;;-0.40;86.45;96965.91;1044431;28;20079;-70
2021/04/14 02:13:28;;;;;;;11.35;6.50;;;;;;;-0.43;86.98;96966.25;1040630;28;20068;-70
2021/04/14 02:13:58;;;;;;;10.85;6.95;;;;;;;-0.45;87.22;96963.81;1040506;28;20024;-70
2021/04/14 02:14:29;;;;;;;13.47;6.60;;;;;;;-0.47;87.90;96959.69;1041473;28;20033;-70
2021/04/14 02:14:59;;;;;;;13.43;7.53;;;;;;;-0.49;88.44;96970.41;1044510;28;20036;-70
2021/04/14 02:15:33;;;;;;;13.77;7.37;;;;;;;-0.53;88.52;96962.03;1044270;28;20044;-70
2021/04/14 02:16:05;;;;;;;9.90;7.00;;;;;;;-0.49;88.54;96961.69;1044233;28;20017;-69
2021/04/14 02:16:36;;;;;;;10.50;7.28;;;;;;;-0.52;87.75;96961.03;1044424;28;20056;-70
2021/04/14 02:17:06;;;;;;;10.35;7.00;;;;;;;-0.52;88.15;96960.22;1044378;28;20029;-70
2021/04/14 02:17:36;;;;;;;10.43;6.80;;;;;;;-0.47;87.84;96965.78;1044967;28;20017;-69
2021/04/14 02:18:07;;;;;;;9.83;6.50;;;;;;;-0.44;87.88;96957.56;1044785;28;20024;-70
2021/04/14 02:18:37;;;;;;;16.17;6.20;;;;;;;-0.45;87.79;96963.81;1045082;28;20044;-70
2021/04/14 02:19:08;;;;;;;13.03;6.60;;;;;;;-0.45;87.38;96966.44;1045161;28;20020;-70
2021/04/14 02:19:38;;;;;;;18.23;7.33;;;;;;;-0.42;86.96;96954.75;1044857;28;20469;-70
2021/04/14 02:20:09;;;;;;;10.63;6.40;;;;;;;-0.39;87.33;96960.47;1044768;28;20025;-70
2021/04/14 02:20:40;;;;;;;17.15;7.43;;;;;;;-0.37;87.11;96962.91;1044955;28;20103;-70
2021/04/14 02:21:10;;;;;;;10.67;7.03;;;;;;;-0.37;87.39;96963.72;1044973;28;20126;-69
2021/04/14 02:21:41;;;;;;;12.73;6.90;;;;;;;-0.33;87.29;96953.69;1045360;28;20485;-70
2021/04/14 02:22:11;;;;;;;9.70;6.00;;;;;;;-0.34;86.69;96959.94;1044897;28;20025;-70
2021/04/14 02:22:42;;;;;;;12.50;7.30;;;;;;;-0.29;86.83;96961.03;1045186;28;20386;-70
2021/04/14 02:23:12;;;;;;;11.77;6.77;;;;;;;-0.30;87.12;96963.84;1045362;28;20469;-70
2021/04/14 02:23:43;;;;;;;13.07;7.17;;;;;;;-0.29;86.60;96963.66;1045338;28;20045;-70
2021/04/14 02:24:13;;;;;;;13.83;7.07;;;;;;;-0.27;86.53;96956.41;1044767;28;20366;-70
2021/04/14 02:24:43;;;;;;;10.03;6.83;;;;;;;-0.28;85.82;96957.41;1045455;28;20286;-70
2021/04/14 02:25:14;;;;;;;9.57;6.20;;;;;;;-0.24;85.48;96957.06;1045122;28;20021;-70
2021/04/14 02:25:45;;;;;;;10.10;6.57;;;;;;;-0.28;85.51;96962.66;1045173;28;20033;-70
2021/04/14 02:26:18;;;;;;;11.60;6.80;;;;;;;-0.28;85.95;96957.41;1044957;28;20369;-70